Elkton, Oregon
Current Conditions -  °F | °C
As of 5:53 PM on Friday 21 Nov 2014 (Local Time) from KRBG Reporting Station
Light Rain Light Rain  
Wind Chill: 60°   Ceiling: 4700
Heat Index: 60°   Visibility: 9mi
Dew Point: 49°   Wind: 9mph
Humidity: 67%   Direction: 170°S
Pressure: 29.67"   Gusts: NA
Location:  43.64°N, 123.57°W
Report Text: KRBG 220153Z AUTO 17008KT 9SM -RA BKN047 OVC060 16/09 A2967 RMK AO2 RAB32 SLP049 P0000 T01560094 TSNO
Loading
Personal Weather Stations






























Interactive Weather Map New forecast layout! Learn more

10-Day Weather Forecast

Advertisements
Track Severe Weather on mobile